Terminal Aerodrome Forecast
Issued by NWS

Home | Current Version | Previous Version | Text Only | Print | Product List | Glossary On
Versions: 1 2 3 4 5 6 7 8 9 10 11 12 13 14 15 16
000
FTUS43 KGRB 292300
TAFMTW
TAF
KMTW 292338Z 3000/3024 30007KT P6SM VCSH SCT040 BKN100
     FM300200 30003KT P6SM SCT012 SCT070
     FM300900 34002KT 4SM BR SCT012
     FM301200 36005KT P6SM SCT100
     FM302000 29006KT P6SM VCSH SCT035 BKN060=

USA.gov is the U.S. government's official web portal to all federal, state and local government web resources and services.